De Xin Hai — BQBP — position and weather

sailwx.info

Track history (hours):
 
Tides and Currents Weather Stations Pressure Air Temp Water Temp Dewpoint Dewpoint Depression Visibility Wind Speed Wind Dir Waves Ship Positions

De Xin Hai

Last reported at 2014-Aug-11 18:30 UTC. Time now 2014-Aug-30 20:37 UTC.
Position N 36°34' W 001°54'.
Warning: this ship's position is 19 days out of date.

Length 225 m; draft 6.9 m.

Type: Cargo ship. MMSI: 367344200.

Date/timePositionNaut miles runAvg speedWind from/ knotsBaromVisibWave heightAir tempDewpointWater temp
2014-Aug-11 18:30N 36°34' W 001°54'2912.2
2014-Aug-11 16:07N 36°49' W 001°22'712.3
2014-Aug-11 15:33N 36°52' W 001°15'1312.7
2014-Aug-11 14:31N 36°59' W 001°01'1213.0
2014-Aug-11 13:34N 37°05' W 000°47'1313.0
2014-Aug-11 12:32N 37°12' W 000°33'1312.9
2014-Aug-11 11:30N 37°19' W 000°18'1212.8
2014-Aug-11 10:32N 37°25' W 000°05'1312.9
2014-Aug-11 09:32N 37°31' E 000°09'2912.8
2014-Aug-11 07:17N 37°46' E 000°40'912.5
2014-Aug-11 06:33N 37°51' E 000°50'1212.1
2014-Aug-11 05:33N 37°57' E 001°04'1212.1
2014-Aug-11 04:33N 38°03' E 001°17'1212.0
2014-Aug-11 03:33N 38°09' E 001°30'1212.0
2014-Aug-11 02:33N 38°15' E 001°43'1212.0
2014-Aug-11 01:33N 38°22' E 001°56'1211.9
2014-Aug-11 00:33N 38°28' E 002°10'1212.3
2014-Aug-10 23:34N 38°34' E 002°23'1312.6
2014-Aug-10 22:33N 38°40' E 002°37'1312.8
2014-Aug-10 21:33N 38°47' E 002°51'1312.7
2014-Aug-10 20:33N 38°53' E 003°05'1312.8
2014-Aug-10 19:33N 38°60' E 003°19'1212.2
2014-Aug-10 18:33N 39°06' E 003°33'1212.3
2014-Aug-10 17:33N 39°12' E 003°47'1312.3
2014-Aug-10 16:29N 39°18' E 004°01'1212.2
2014-Aug-10 15:32N 39°25' E 004°14'1212.0
2014-Aug-10 14:33N 39°30' E 004°27'1212.2
2014-Aug-10 13:33N 39°37' E 004°41'1312.4
2014-Aug-10 12:31N 39°43' E 004°55'1212.1
2014-Aug-10 11:33N 39°49' E 005°08'1312.7
2014-Aug-10 10:30N 39°56' E 005°23'1212.8
2014-Aug-10 09:33N 40°02' E 005°37'1312.3
2014-Aug-10 08:32N 40°08' E 005°51'1312.7
2014-Aug-10 07:30N 40°15' E 006°06'1112.2
2014-Aug-10 06:34N 40°21' E 006°19'1313.0
2014-Aug-10 05:33N 40°27' E 006°34'1413.1
2014-Aug-10 04:27N 40°35' E 006°50'1513.8
2014-Aug-10 03:23N 40°42' E 007°07'1112.9
2014-Aug-10 02:31N 40°48' E 007°20'1313.3
2014-Aug-10 01:31N 40°55' E 007°35'1313.0
2014-Aug-10 00:29N 41°01' E 007°50'1212.3
2014-Aug-09 23:30N 41°07' E 008°04'1312.6
2014-Aug-09 22:26N 41°10' E 008°21'19 5.7
2014-Aug-09 19:03N 40°51' E 008°21'0 0.0
2014-Aug-09 18:33N 40°51' E 008°21'0 0.0
2014-Aug-09 17:33N 40°51' E 008°21'0 0.0
2014-Aug-09 16:33N 40°51' E 008°21'0 0.0
2014-Aug-09 15:15N 40°51' E 008°21'0 0.0
2014-Aug-09 10:33N 40°51' E 008°21'0 0.0
2014-Aug-09 09:15N 40°51' E 008°21'0 0.0
2014-Aug-08 22:24N 40°51' E 008°21'0 0.0
2014-Aug-08 18:21N 40°51' E 008°21'0 0.0
2014-Aug-08 17:26N 40°51' E 008°21'0 0.0
2014-Aug-08 16:33N 40°51' E 008°21'0 0.0
2014-Aug-06 18:33N 40°51' E 008°21'0 0.0
2014-Aug-06 15:33N 40°51' E 008°21'0 0.0
2014-Aug-06 13:09N 40°51' E 008°21'0 0.0
2014-Aug-06 12:30N 40°51' E 008°21'0 0.0
2014-Aug-05 11:21N 40°51' E 008°21'0 0.0
2014-Aug-05 10:24N 40°51' E 008°21'0 0.0
2014-Aug-05 08:30N 40°51' E 008°21'0 0.0
2014-Aug-05 06:27N 40°51' E 008°21'0 0.0
2014-Aug-05 05:09N 40°51' E 008°21'0 0.0
2014-Aug-05 04:15N 40°51' E 008°21'0 0.0
2014-Aug-05 03:33N 40°51' E 008°21'0 0.0
2014-Aug-05 01:06N 40°51' E 008°21'0 0.0
2014-Aug-05 00:33N 40°51' E 008°21'0 0.0
2014-Aug-04 21:18N 40°51' E 008°21'0 0.0
2014-Aug-04 20:33N 40°51' E 008°21'0 0.0
2014-Aug-04 19:33N 40°51' E 008°21'0 0.0
2014-Aug-04 18:33N 40°51' E 008°21'0 0.0
2014-Aug-04 16:21N 40°51' E 008°21'0 0.0
2014-Aug-04 15:33N 40°51' E 008°21'0 0.0
2014-Aug-04 13:24N 40°51' E 008°21'0 0.0
2014-Aug-04 08:27N 40°51' E 008°21'0 0.0
2014-Aug-04 07:33N 40°51' E 008°21'0 0.0
2014-Aug-04 06:33N 40°51' E 008°21'0 0.0
2014-Aug-04 03:33N 40°51' E 008°21'0 0.0
2014-Aug-02 06:18N 40°51' E 008°21'0 0.0
2014-Aug-02 02:27N 40°51' E 008°21'0 0.0
2014-Aug-02 01:33N 40°51' E 008°21'0 0.0
2014-Aug-02 00:27N 40°51' E 008°21'0 0.0
2014-Aug-01 22:27N 40°51' E 008°21'0 0.0
2014-Aug-01 21:10N 40°51' E 008°21'1 1.6
2014-Aug-01 20:20N 40°51' E 008°23'  
Track history (hours):
 
Tides and Currents Weather Stations Pressure Air Temp Water Temp Dewpoint Dewpoint Depression Visibility Wind Speed Wind Dir Waves Ship Positions

De Xin Hai

Last reported at 2014-Aug-11 18:30 UTC. Time now 2014-Aug-30 20:37 UTC.
Position N 36°34' W 001°54'.
Warning: this ship's position is 19 days out of date.

Length 225 m; draft 6.9 m.

Type: Cargo ship. MMSI: 367344200.

Date/timePositionNaut miles runAvg speedWind from/ knotsBaromVisibWave heightAir tempDewpointWater temp
2014-Aug-11 18:30N 36°34' W 001°54'2912.2
2014-Aug-11 16:07N 36°49' W 001°22'712.3
2014-Aug-11 15:33N 36°52' W 001°15'1312.7
2014-Aug-11 14:31N 36°59' W 001°01'1213.0
2014-Aug-11 13:34N 37°05' W 000°47'1313.0
2014-Aug-11 12:32N 37°12' W 000°33'1312.9
2014-Aug-11 11:30N 37°19' W 000°18'1212.8
2014-Aug-11 10:32N 37°25' W 000°05'1312.9
2014-Aug-11 09:32N 37°31' E 000°09'2912.8
2014-Aug-11 07:17N 37°46' E 000°40'912.5
2014-Aug-11 06:33N 37°51' E 000°50'1212.1
2014-Aug-11 05:33N 37°57' E 001°04'1212.1
2014-Aug-11 04:33N 38°03' E 001°17'1212.0
2014-Aug-11 03:33N 38°09' E 001°30'1212.0
2014-Aug-11 02:33N 38°15' E 001°43'1212.0
2014-Aug-11 01:33N 38°22' E 001°56'1211.9
2014-Aug-11 00:33N 38°28' E 002°10'1212.3
2014-Aug-10 23:34N 38°34' E 002°23'1312.6
2014-Aug-10 22:33N 38°40' E 002°37'1312.8
2014-Aug-10 21:33N 38°47' E 002°51'1312.7
2014-Aug-10 20:33N 38°53' E 003°05'1312.8
2014-Aug-10 19:33N 38°60' E 003°19'1212.2
2014-Aug-10 18:33N 39°06' E 003°33'1212.3
2014-Aug-10 17:33N 39°12' E 003°47'1312.3
2014-Aug-10 16:29N 39°18' E 004°01'1212.2
2014-Aug-10 15:32N 39°25' E 004°14'1212.0
2014-Aug-10 14:33N 39°30' E 004°27'1212.2
2014-Aug-10 13:33N 39°37' E 004°41'1312.4
2014-Aug-10 12:31N 39°43' E 004°55'1212.1
2014-Aug-10 11:33N 39°49' E 005°08'1312.7
2014-Aug-10 10:30N 39°56' E 005°23'1212.8
2014-Aug-10 09:33N 40°02' E 005°37'1312.3
2014-Aug-10 08:32N 40°08' E 005°51'1312.7
2014-Aug-10 07:30N 40°15' E 006°06'1112.2
2014-Aug-10 06:34N 40°21' E 006°19'1313.0
2014-Aug-10 05:33N 40°27' E 006°34'1413.1
2014-Aug-10 04:27N 40°35' E 006°50'1513.8
2014-Aug-10 03:23N 40°42' E 007°07'1112.9
2014-Aug-10 02:31N 40°48' E 007°20'1313.3
2014-Aug-10 01:31N 40°55' E 007°35'1313.0
2014-Aug-10 00:29N 41°01' E 007°50'1212.3
2014-Aug-09 23:30N 41°07' E 008°04'1312.6
2014-Aug-09 22:26N 41°10' E 008°21'19 5.7
2014-Aug-09 19:03N 40°51' E 008°21'0 0.0
2014-Aug-09 18:33N 40°51' E 008°21'0 0.0
2014-Aug-09 17:33N 40°51' E 008°21'0 0.0
2014-Aug-09 16:33N 40°51' E 008°21'0 0.0
2014-Aug-09 15:15N 40°51' E 008°21'0 0.0
2014-Aug-09 10:33N 40°51' E 008°21'0 0.0
2014-Aug-09 09:15N 40°51' E 008°21'0 0.0
2014-Aug-08 22:24N 40°51' E 008°21'0 0.0
2014-Aug-08 18:21N 40°51' E 008°21'0 0.0
2014-Aug-08 17:26N 40°51' E 008°21'0 0.0
2014-Aug-08 16:33N 40°51' E 008°21'0 0.0
2014-Aug-06 18:33N 40°51' E 008°21'0 0.0
2014-Aug-06 15:33N 40°51' E 008°21'0 0.0
2014-Aug-06 13:09N 40°51' E 008°21'0 0.0
2014-Aug-06 12:30N 40°51' E 008°21'0 0.0
2014-Aug-05 11:21N 40°51' E 008°21'0 0.0
2014-Aug-05 10:24N 40°51' E 008°21'0 0.0
2014-Aug-05 08:30N 40°51' E 008°21'0 0.0
2014-Aug-05 06:27N 40°51' E 008°21'0 0.0
2014-Aug-05 05:09N 40°51' E 008°21'0 0.0
2014-Aug-05 04:15N 40°51' E 008°21'0 0.0
2014-Aug-05 03:33N 40°51' E 008°21'0 0.0
2014-Aug-05 01:06N 40°51' E 008°21'0 0.0
2014-Aug-05 00:33N 40°51' E 008°21'0 0.0
2014-Aug-04 21:18N 40°51' E 008°21'0 0.0
2014-Aug-04 20:33N 40°51' E 008°21'0 0.0
2014-Aug-04 19:33N 40°51' E 008°21'0 0.0
2014-Aug-04 18:33N 40°51' E 008°21'0 0.0
2014-Aug-04 16:21N 40°51' E 008°21'0 0.0
2014-Aug-04 15:33N 40°51' E 008°21'0 0.0
2014-Aug-04 13:24N 40°51' E 008°21'0 0.0
2014-Aug-04 08:27N 40°51' E 008°21'0 0.0
2014-Aug-04 07:33N 40°51' E 008°21'0 0.0
2014-Aug-04 06:33N 40°51' E 008°21'0 0.0
2014-Aug-04 03:33N 40°51' E 008°21'0 0.0
2014-Aug-02 06:18N 40°51' E 008°21'0 0.0
2014-Aug-02 02:27N 40°51' E 008°21'0 0.0
2014-Aug-02 01:33N 40°51' E 008°21'0 0.0
2014-Aug-02 00:27N 40°51' E 008°21'0 0.0
2014-Aug-01 22:27N 40°51' E 008°21'0 0.0
2014-Aug-01 21:10N 40°51' E 008°21'1 1.6
2014-Aug-01 20:20N 40°51' E 008°23'  

Dump ship's entire track history